Time;durP1;ratioP1;P1;durP2;ratioP2;P2;SDS_P1;SDS_P2;PMS_P1;PMS_P2;Temp;Humidity;BMP_temperature;BMP_pressure;BME280_temperature;BME280_humidity;BME280_pressure;Samples;Min_cycle;Max_cycle;Signal;HPM_P1;HPM_P2
2022/03/16 07:05:51;;;;;;;15.57;11.35;;;7.60;99.90;;;;;;7375314;19;23332;-73
2022/03/16 07:08:17;;;;;;;12.53;10.70;;;5.50;99.90;;;;;;7376411;19;20305;-73
2022/03/16 07:10:43;;;;;;;12.98;10.73;;;5.50;99.90;;;;;;7376840;19;20665;-74
2022/03/16 07:13:11;;;;;;;13.27;10.90;;;5.60;99.90;;;;;;7373758;19;20321;-74
2022/03/16 07:15:37;;;;;;;13.37;10.30;;;5.70;99.90;;;;;;7374777;19;20301;-73
2022/03/16 07:18:02;;;;;;;14.70;10.70;;;5.80;99.90;;;;;;7375974;19;20346;-73
2022/03/16 07:20:29;;;;;;;15.23;11.48;;;5.90;99.90;;;;;;7378232;19;20316;-73
2022/03/16 07:23:05;;;;;;;16.20;11.85;;;6.00;99.90;;;;;;7372937;19;20840;-73
2022/03/16 07:25:30;;;;;;;15.95;12.40;;;6.10;99.90;;;;;;7374978;19;20983;-74
2022/03/16 07:27:56;;;;;;;15.52;12.20;;;6.10;99.90;;;;;;7375554;19;20384;-73
2022/03/16 07:30:22;;;;;;;19.10;13.10;;;6.30;99.90;;;;;;7377240;19;20321;-74
2022/03/16 07:32:47;;;;;;;13.63;11.65;;;6.30;99.90;;;;;;7374607;19;20329;-74
2022/03/16 07:35:13;;;;;;;14.80;12.63;;;6.40;99.90;;;;;;7375552;19;20300;-73
2022/03/16 07:37:39;;;;;;;18.13;13.23;;;6.50;99.90;;;;;;7376512;19;20300;-73
2022/03/16 07:40:06;;;;;;;16.38;13.13;;;6.60;99.90;;;;;;7374538;19;20320;-75
2022/03/16 07:42:31;;;;;;;18.30;13.23;;;6.70;99.90;;;;;;7375527;19;20321;-75
2022/03/16 07:44:58;;;;;;;17.33;12.80;;;6.80;99.90;;;;;;7376016;19;20331;-75
2022/03/16 07:47:27;;;;;;;18.15;14.27;;;6.90;99.90;;;;;;7376146;19;20381;-75
2022/03/16 07:49:53;;;;;;;19.83;13.88;;;7.00;99.90;;;;;;7375286;19;20313;-75
2022/03/16 07:52:20;;;;;;;18.33;13.32;;;7.10;99.90;;;;;;7375703;19;20316;-74
2022/03/16 07:54:45;;;;;;;16.33;13.45;;;7.20;99.90;;;;;;7374727;19;20319;-74
2022/03/16 07:57:11;;;;;;;15.30;12.55;;;7.30;99.90;;;;;;7376077;19;20368;-74
2022/03/16 07:59:37;;;;;;;17.93;13.40;;;7.40;99.90;;;;;;7375061;19;20333;-76
2022/03/16 08:02:03;;;;;;;20.15;14.80;;;7.50;99.90;;;;;;7375689;19;20317;-74
2022/03/16 08:04:29;;;;;;;18.92;14.27;;;7.60;99.90;;;;;;7375860;19;20325;-76
2022/03/16 08:06:54;;;;;;;17.30;13.87;;;7.70;99.90;;;;;;7375042;19;20325;-76
2022/03/16 08:09:20;;;;;;;19.77;14.03;;;7.80;99.90;;;;;;7373992;19;20317;-75
2022/03/16 08:11:45;;;;;;;16.03;12.47;;;7.90;99.90;;;;;;7375373;19;20333;-76
2022/03/16 08:14:12;;;;;;;17.90;14.07;;;8.00;99.90;;;;;;7372523;19;21188;-75
2022/03/16 08:16:39;;;;;;;18.17;13.35;;;8.00;99.90;;;;;;7381549;19;20301;-75
2022/03/16 08:19:05;;;;;;;14.85;12.77;;;8.20;99.90;;;;;;7383726;19;20316;-75
2022/03/16 08:21:30;;;;;;;18.70;13.65;;;8.20;99.90;;;;;;7381510;19;20312;-74
2022/03/16 08:23:56;;;;;;;17.83;13.07;;;8.30;99.90;;;;;;7382382;19;20333;-75
2022/03/16 08:26:23;;;;;;;16.02;12.88;;;8.40;99.90;;;;;;7381268;19;20366;-75
2022/03/16 08:28:49;;;;;;;14.68;12.32;;;8.50;99.90;;;;;;7380373;19;20313;-74
2022/03/16 08:31:15;;;;;;;15.98;12.25;;;8.60;99.90;;;;;;7382043;19;20322;-75
2022/03/16 08:33:41;;;;;;;16.77;12.30;;;8.70;99.90;;;;;;7380818;19;20321;-76
2022/03/16 08:36:07;;;;;;;18.25;13.10;;;8.80;99.90;;;;;;7380090;19;20315;-75
2022/03/16 08:38:37;;;;;;;14.85;12.05;;;8.80;99.90;;;;;;7381929;19;20312;-76
2022/03/16 08:41:06;;;;;;;17.55;12.85;;;8.90;99.90;;;;;;7379361;19;20305;-74
2022/03/16 08:43:33;;;;;;;13.02;10.45;;;9.00;99.90;;;;;;7379788;19;20410;-75
2022/03/16 08:45:59;;;;;;;15.15;11.98;;;9.00;99.90;;;;;;7382763;19;20348;-75
2022/03/16 08:48:25;;;;;;;15.30;12.05;;;9.10;99.90;;;;;;7379031;19;20317;-74
2022/03/16 08:50:51;;;;;;;16.00;11.32;;;9.20;99.90;;;;;;7382355;19;20317;-75
2022/03/16 08:53:16;;;;;;;14.77;11.33;;;9.10;99.90;;;;;;7381505;19;20355;-76
2022/03/16 08:55:42;;;;;;;19.48;12.63;;;9.10;99.90;;;;;;7379632;19;20754;-74
2022/03/16 08:58:08;;;;;;;16.27;12.32;;;9.20;99.90;;;;;;7381976;19;20288;-76
2022/03/16 09:00:34;;;;;;;16.27;12.43;;;9.10;99.90;;;;;;7381240;19;20321;-75
2022/03/16 09:03:00;;;;;;;19.57;12.63;;;9.20;99.90;;;;;;7382507;19;20996;-75
2022/03/16 09:05:26;;;;;;;19.27;12.73;;;9.30;99.90;;;;;;7382697;19;20380;-75
2022/03/16 09:07:52;;;;;;;17.60;12.48;;;9.30;99.90;;;;;;7379584;19;20343;-74
2022/03/16 09:10:17;;;;;;;16.15;12.95;;;9.40;99.90;;;;;;7383360;19;20325;-74
2022/03/16 09:12:43;;;;;;;16.23;12.33;;;9.50;99.90;;;;;;7383550;19;20342;-74
2022/03/16 09:15:09;;;;;;;15.43;11.65;;;9.70;99.90;;;;;;7386489;19;20320;-74
2022/03/16 09:17:35;;;;;;;17.67;12.80;;;9.80;99.90;;;;;;7381633;19;20320;-75
2022/03/16 09:20:04;;;;;;;22.08;15.25;;;9.90;99.90;;;;;;7383302;19;20353;-73
2022/03/16 09:22:30;;;;;;;20.63;14.40;;;9.90;99.90;;;;;;7378974;19;20317;-75
2022/03/16 09:24:56;;;;;;;18.67;14.00;;;9.90;99.90;;;;;;7380256;19;20320;-77
2022/03/16 09:27:23;;;;;;;19.25;14.40;;;9.90;99.90;;;;;;7379332;19;20845;-75
2022/03/16 09:29:48;;;;;;;19.58;15.05;;;9.80;99.90;;;;;;7381442;19;21215;-75
2022/03/16 09:32:14;;;;;;;21.88;14.48;;;9.90;99.90;;;;;;7380884;19;20328;-75
2022/03/16 09:34:40;;;;;;;17.48;14.90;;;9.80;99.90;;;;;;7380781;19;20365;-76
2022/03/16 09:37:07;;;;;;;19.38;13.98;;;9.80;99.90;;;;;;7382591;19;20304;-76
2022/03/16 09:39:37;;;;;;;18.98;13.63;;;9.90;99.90;;;;;;7385161;19;20416;-77
2022/03/16 09:42:03;;;;;;;18.60;13.90;;;9.90;99.90;;;;;;7385428;19;20324;-75
2022/03/16 09:44:30;;;;;;;18.05;14.05;;;9.90;99.90;;;;;;7379151;19;21165;-75
2022/03/16 09:46:57;;;;;;;17.02;13.13;;;10.00;99.90;;;;;;7382064;19;20305;-74
2022/03/16 09:49:23;;;;;;;15.48;12.50;;;9.90;99.90;;;;;;7379930;19;20312;-75
2022/03/16 09:51:49;;;;;;;16.55;12.68;;;10.00;99.90;;;;;;7378699;19;20380;-74
2022/03/16 09:54:15;;;;;;;15.70;11.90;;;10.00;99.90;;;;;;7378535;19;20345;-74
2022/03/16 09:56:41;;;;;;;14.37;11.80;;;10.10;99.90;;;;;;7378144;19;20420;-74
2022/03/16 09:59:06;;;;;;;17.97;13.27;;;10.20;99.90;;;;;;7366932;19;20347;-74
2022/03/16 10:01:34;;;;;;;13.45;11.90;;;10.10;99.90;;;;;;7380025;19;20323;-75
2022/03/16 10:04:03;;;;;;;15.43;12.93;;;10.00;99.90;;;;;;7379667;19;20358;-75
2022/03/16 10:06:29;;;;;;;16.75;13.63;;;10.00;99.90;;;;;;7381098;19;20432;-74
2022/03/16 10:14:24;;;;;;;17.85;14.50;;;9.90;99.90;;;;;;7382891;19;20341;-75
2022/03/16 10:19:50;;;;;;;17.17;13.70;;;10.10;99.90;;;;;;7280893;19;2004111;-74
2022/03/16 10:22:25;;;;;;;17.03;14.27;;;10.10;99.90;;;;;;7381683;19;20419;-74
2022/03/16 10:24:57;;;;;;;18.95;14.13;;;10.20;99.90;;;;;;7378399;19;20296;-75
2022/03/16 10:27:23;;;;;;;20.45;14.93;;;10.40;99.90;;;;;;7380150;19;20888;-74
2022/03/16 10:29:53;;;;;;;20.27;15.80;;;10.50;99.90;;;;;;7382499;19;20301;-75
2022/03/16 10:32:19;;;;;;;19.08;14.60;;;10.60;99.90;;;;;;7357835;19;20313;-73
2022/03/16 10:34:52;;;;;;;20.55;15.60;;;10.70;99.90;;;;;;7374514;19;20929;-74
2022/03/16 10:37:22;;;;;;;20.40;14.90;;;10.70;99.90;;;;;;7380386;19;20329;-74
2022/03/16 10:39:54;;;;;;;20.13;16.07;;;11.00;99.90;;;;;;7380739;19;20343;-73
2022/03/16 10:48:10;;;;;;;22.23;16.57;;;11.40;99.90;;;;;;7276415;19;2004576;-74
2022/03/16 10:50:42;;;;;;;21.60;15.75;;;11.60;99.90;;;;;;7376306;19;20867;-74
2022/03/16 10:53:16;;;;;;;18.70;15.25;;;11.90;99.90;;;;;;7378701;19;20316;-74
2022/03/16 10:55:45;;;;;;;20.60;15.52;;;12.00;99.90;;;;;;7381687;19;20326;-75
2022/03/16 10:58:16;;;;;;;19.15;13.63;;;12.00;99.90;;;;;;7376441;19;20308;-74
2022/03/16 11:00:42;;;;;;;22.35;15.68;;;12.10;99.90;;;;;;7377455;19;20323;-74
2022/03/16 11:03:14;;;;;;;20.58;14.98;;;12.30;99.90;;;;;;7379442;19;20320;-73
2022/03/16 11:05:40;;;;;;;19.52;14.70;;;12.20;99.90;;;;;;7374593;19;20331;-73
2022/03/16 11:08:09;;;;;;;16.87;13.50;;;12.40;99.90;;;;;;7378499;19;20775;-73
2022/03/16 11:10:38;;;;;;;16.08;13.73;;;12.70;99.90;;;;;;7379599;19;20328;-72
2022/03/16 11:15:50;;;;;;;15.27;13.25;;;13.30;99.90;;;;;;7273576;19;2004455;-72
2022/03/16 11:18:18;;;;;;;15.38;12.73;;;13.30;99.90;;;;;;7381267;19;20336;-72
2022/03/16 11:20:46;;;;;;;17.90;14.13;;;13.70;99.90;;;;;;7355948;19;20328;-74
2022/03/16 11:26:14;;;;;;;16.55;13.50;;;14.10;99.90;;;;;;7361420;19;20315;-74
2022/03/16 11:28:47;;;;;;;15.40;12.75;;;14.20;99.90;;;;;;7361796;19;20911;-73
2022/03/16 11:31:16;;;;;;;17.40;12.73;;;14.20;99.90;;;;;;7354079;19;20320;-73
2022/03/16 11:33:50;;;;;;;19.25;13.05;;;14.40;99.90;;;;;;7377882;19;20350;-73
2022/03/16 11:36:35;;;;;;;16.38;13.35;;;14.60;99.90;;;;;;7371100;19;20312;-73
2022/03/16 11:39:02;;;;;;;15.90;12.43;;;14.60;99.90;;;;;;7378464;19;20414;-73
2022/03/16 11:41:31;;;;;;;13.70;11.45;;;14.80;99.90;;;;;;7376024;19;20316;-73
2022/03/16 11:44:16;;;;;;;16.93;13.03;;;14.90;99.90;;;;;;7357054;19;20321;-73
2022/03/16 11:46:46;;;;;;;15.70;13.02;;;15.10;99.90;;;;;;7251528;19;2004379;-74
2022/03/16 11:49:11;;;;;;;16.63;12.52;;;15.20;99.90;;;;;;7380944;19;20372;-73
2022/03/16 11:51:43;;;;;;;16.20;12.88;;;15.40;99.90;;;;;;7384582;19;20333;-72
2022/03/16 11:54:09;;;;;;;16.15;12.27;;;15.80;99.90;;;;;;7381935;19;20888;-73
2022/03/16 11:56:34;;;;;;;15.20;11.95;;;16.00;99.90;;;;;;7383771;19;20300;-72
2022/03/16 11:59:14;;;;;;;16.13;12.33;;;16.10;99.90;;;;;;7324918;19;21189;-73
2022/03/16 12:01:48;;;;;;;15.35;12.40;;;16.40;99.90;;;;;;7329766;19;20300;-73
2022/03/16 12:04:23;;;;;;;18.17;13.03;;;16.70;99.90;;;;;;7383793;19;20372;-73
2022/03/16 12:06:51;;;;;;;14.10;11.93;;;16.30;99.90;;;;;;7383205;19;20308;-75
2022/03/16 12:09:45;;;;;;;13.02;11.40;;;16.20;99.90;;;;;;7385919;19;20428;-74
2022/03/16 12:15:20;;;;;;;15.67;12.07;;;16.60;99.90;;;;;;7259779;19;2004532;-73
2022/03/16 12:17:51;;;;;;;13.85;12.00;;;16.70;99.90;;;;;;7381998;19;20320;-73
2022/03/16 12:20:23;;;;;;;15.15;11.75;;;17.20;99.90;;;;;;7384191;19;20308;-74
2022/03/16 12:22:50;;;;;;;14.63;12.13;;;17.40;99.90;;;;;;7385564;19;20870;-74
2022/03/16 12:25:34;;;;;;;14.98;12.45;;;17.20;99.90;;;;;;7381513;19;20332;-74
2022/03/16 12:31:02;;;;;;;15.77;12.47;;;17.70;99.90;;;;;;7281425;19;2004779;-74
2022/03/16 12:33:30;;;;;;;14.35;12.10;;;17.90;99.90;;;;;;7380816;19;20960;-74
2022/03/16 12:36:07;;;;;;;14.03;12.53;;;17.80;99.90;;;;;;7342436;19;20343;-74
2022/03/16 12:38:37;;;;;;;15.25;12.48;;;18.00;99.90;;;;;;7279329;19;2004555;-74
2022/03/16 12:43:49;;;;;;;13.98;12.15;;;17.80;99.90;;;;;;7281342;19;2004495;-74
2022/03/16 12:46:26;;;;;;;13.52;11.75;;;18.10;99.90;;;;;;7381326;19;20324;-74
2022/03/16 12:48:57;;;;;;;20.52;12.25;;;18.50;99.90;;;;;;7377750;19;20367;-73
2022/03/16 12:51:36;;;;;;;14.57;12.60;;;18.70;99.90;;;;;;7383359;19;20329;-73
2022/03/16 12:54:02;;;;;;;15.40;12.23;;;19.00;99.90;;;;;;7360152;19;20305;-74
2022/03/16 12:56:28;;;;;;;15.23;10.25;;;18.80;99.90;;;;;;7381856;19;20399;-74
2022/03/16 12:58:56;;;;;;;14.90;11.13;;;19.30;99.90;;;;;;7385492;19;20923;-73
2022/03/16 13:01:22;;;;;;;13.33;10.53;;;19.60;99.90;;;;;;7382663;19;20312;-73
2022/03/16 13:03:59;;;;;;;12.98;11.00;;;20.20;99.90;;;;;;7363990;19;20348;-73
2022/03/16 13:06:25;;;;;;;13.63;11.70;;;20.20;99.90;;;;;;7278654;19;2004554;-73
2022/03/16 13:08:52;;;;;;;13.35;10.88;;;19.90;99.00;;;;;;7373467;19;20304;-74
2022/03/16 13:11:24;;;;;;;12.93;11.07;;;19.50;97.10;;;;;;7380188;19;20317;-73
2022/03/16 13:14:06;;;;;;;13.75;11.82;;;19.50;98.50;;;;;;7380654;19;20316;-73
2022/03/16 13:16:34;;;;;;;12.93;11.30;;;19.30;97.30;;;;;;7382082;19;20313;-73
2022/03/16 13:19:01;;;;;;;13.07;11.68;;;19.00;98.90;;;;;;7383868;19;20378;-73
2022/03/16 13:21:26;;;;;;;16.88;12.35;;;19.30;99.40;;;;;;7360606;19;20336;-73
2022/03/16 13:24:06;;;;;;;13.73;11.67;;;19.20;97.00;;;;;;7359285;19;20363;-73
2022/03/16 13:26:32;;;;;;;15.50;12.25;;;18.60;95.80;;;;;;7382555;19;20329;-73
2022/03/16 13:28:58;;;;;;;14.43;11.70;;;18.60;98.80;;;;;;7365511;19;20305;-73
2022/03/16 13:31:31;;;;;;;16.55;12.07;;;18.80;96.60;;;;;;7379843;19;20324;-73
2022/03/16 13:34:03;;;;;;;12.52;10.60;;;18.50;96.30;;;;;;7379920;19;20333;-74
2022/03/16 13:36:52;;;;;;;15.60;11.87;;;18.80;98.20;;;;;;7380642;19;20331;-73
2022/03/16 13:39:19;;;;;;;14.75;11.57;;;18.90;96.40;;;;;;7381321;19;20333;-73
2022/03/16 13:42:12;;;;;;;13.80;11.73;;;18.80;96.00;;;;;;7380588;19;20885;-73
2022/03/16 13:44:47;;;;;;;13.57;10.73;;;18.80;95.90;;;;;;7379511;19;20332;-73
2022/03/16 13:47:12;;;;;;;13.00;10.93;;;18.80;95.40;;;;;;7377737;19;20332;-73
2022/03/16 13:49:40;;;;;;;14.57;12.23;;;18.60;95.80;;;;;;7358601;19;20330;-73
2022/03/16 13:52:08;;;;;;;13.55;11.77;;;18.50;96.60;;;;;;7379871;19;20331;-73
2022/03/16 13:54:35;;;;;;;17.17;12.95;;;18.20;97.30;;;;;;7380516;19;20332;-73
2022/03/16 13:57:19;;;;;;;14.60;12.43;;;17.40;96.90;;;;;;7381605;19;20321;-73
2022/03/16 14:00:06;;;;;;;14.60;11.95;;;16.80;97.50;;;;;;7382264;19;20337;-73
2022/03/16 14:02:38;;;;;;;12.35;11.02;;;16.60;98.40;;;;;;7278847;19;2004375;-73
2022/03/16 14:05:06;;;;;;;14.77;12.60;;;16.30;99.50;;;;;;7380329;19;20462;-74
2022/03/16 14:07:38;;;;;;;13.97;11.23;;;16.20;99.30;;;;;;7380473;19;20307;-74
2022/03/16 14:10:06;;;;;;;13.52;11.43;;;16.20;99.90;;;;;;7377250;19;20844;-73
2022/03/16 14:12:36;;;;;;;14.98;11.90;;;15.80;99.90;;;;;;7375982;19;20296;-74
2022/03/16 14:15:20;;;;;;;13.85;12.02;;;15.80;99.90;;;;;;7377139;19;20735;-73
2022/03/16 14:17:57;;;;;;;13.80;11.83;;;15.70;99.90;;;;;;7272660;19;2004536;-73
2022/03/16 14:20:26;;;;;;;14.10;12.52;;;15.30;99.90;;;;;;7379684;19;20297;-73
2022/03/16 14:22:52;;;;;;;17.33;12.15;;;14.90;99.90;;;;;;7376600;19;20320;-73
2022/03/16 14:25:25;;;;;;;14.63;13.05;;;14.70;99.90;;;;;;7377205;19;20325;-73
2022/03/16 14:27:53;;;;;;;13.77;12.25;;;14.30;99.90;;;;;;7382262;19;20373;-73
2022/03/16 14:30:20;;;;;;;13.60;11.40;;;14.10;99.90;;;;;;7378239;19;20955;-73
2022/03/16 14:32:53;;;;;;;13.85;11.75;;;14.20;99.90;;;;;;7315727;19;20355;-74
2022/03/16 14:35:23;;;;;;;15.02;11.88;;;14.00;99.90;;;;;;7336880;19;20312;-73
2022/03/16 14:37:52;;;;;;;12.67;11.20;;;13.90;99.90;;;;;;7378956;19;20309;-74
2022/03/16 14:40:21;;;;;;;14.43;11.23;;;14.00;99.90;;;;;;7377445;19;20726;-73
2022/03/16 14:42:51;;;;;;;15.07;12.20;;;13.90;99.90;;;;;;7376027;19;20297;-74
2022/03/16 14:45:17;;;;;;;17.07;11.80;;;13.80;99.90;;;;;;7377982;19;20308;-73
2022/03/16 14:47:42;;;;;;;12.57;10.68;;;13.70;99.90;;;;;;7375639;19;20329;-74
2022/03/16 14:50:09;;;;;;;15.10;12.43;;;13.80;99.90;;;;;;7378227;19;20338;-73
2022/03/16 14:52:35;;;;;;;11.88;10.68;;;13.60;99.90;;;;;;7379025;19;20318;-73
2022/03/16 14:55:01;;;;;;;13.10;11.53;;;13.70;99.90;;;;;;7366410;19;20325;-73
2022/03/16 14:57:27;;;;;;;13.32;11.88;;;13.70;99.90;;;;;;7374503;19;20313;-74
2022/03/16 14:59:55;;;;;;;14.03;11.47;;;13.90;99.90;;;;;;7377088;19;21322;-73
2022/03/16 15:02:21;;;;;;;14.15;11.27;;;14.00;99.90;;;;;;7376336;19;20307;-74
2022/03/16 15:04:46;;;;;;;13.53;11.77;;;14.30;99.90;;;;;;7377131;19;20862;-73
2022/03/16 15:07:12;;;;;;;14.02;11.85;;;14.30;99.90;;;;;;7379456;19;20322;-74
2022/03/16 15:09:38;;;;;;;16.87;12.17;;;14.10;99.90;;;;;;7376623;19;20336;-73
2022/03/16 15:12:05;;;;;;;13.13;11.40;;;13.80;99.90;;;;;;7379143;19;20327;-74
2022/03/16 15:14:31;;;;;;;18.65;12.48;;;13.60;99.90;;;;;;7375458;19;20338;-73
2022/03/16 15:16:57;;;;;;;13.80;11.55;;;13.50;99.90;;;;;;7374788;19;20663;-74
2022/03/16 15:19:22;;;;;;;13.20;11.23;;;13.50;99.90;;;;;;7375871;19;20324;-76
2022/03/16 15:21:48;;;;;;;14.50;11.27;;;13.30;99.90;;;;;;7375918;19;20313;-74
2022/03/16 15:24:14;;;;;;;13.02;11.48;;;13.30;99.90;;;;;;7378870;19;20475;-75
2022/03/16 15:26:40;;;;;;;13.77;11.30;;;13.20;99.90;;;;;;7389866;19;20388;-75
2022/03/16 15:29:09;;;;;;;14.00;10.55;;;13.20;99.90;;;;;;7389175;19;20366;-74
2022/03/16 15:31:36;;;;;;;13.70;11.15;;;13.30;99.90;;;;;;7385418;19;21179;-74
2022/03/16 15:34:02;;;;;;;13.25;10.23;;;13.20;99.90;;;;;;7387804;19;20321;-74
2022/03/16 15:36:28;;;;;;;15.80;11.82;;;13.30;99.90;;;;;;7393737;19;20665;-75
2022/03/16 15:38:54;;;;;;;13.83;10.77;;;13.30;99.90;;;;;;7392178;19;20313;-74
2022/03/16 15:44:04;;;;;;;15.68;12.63;;;13.30;99.90;;;;;;7267326;19;2004352;-74
2022/03/16 15:46:33;;;;;;;16.80;12.43;;;13.10;99.90;;;;;;7385560;19;21073;-74
2022/03/16 15:49:01;;;;;;;16.93;11.83;;;12.90;99.90;;;;;;7388626;19;20345;-74
2022/03/16 15:51:27;;;;;;;14.18;11.50;;;12.80;99.90;;;;;;7388530;19;20317;-74
2022/03/16 15:53:53;;;;;;;16.30;12.67;;;12.70;99.90;;;;;;7389455;19;20340;-75
2022/03/16 15:56:19;;;;;;;14.63;12.48;;;12.40;99.90;;;;;;7385806;19;20863;-73
2022/03/16 15:58:45;;;;;;;17.75;13.38;;;12.20;99.90;;;;;;7386501;19;20983;-73
2022/03/16 16:01:11;;;;;;;16.58;12.93;;;12.10;99.90;;;;;;7384130;19;20415;-74
2022/03/16 16:03:39;;;;;;;13.57;11.93;;;12.00;99.90;;;;;;7387736;19;20332;-73
2022/03/16 16:06:08;;;;;;;13.13;11.43;;;11.90;99.90;;;;;;7388130;19;20376;-74
2022/03/16 16:08:36;;;;;;;15.55;11.95;;;11.90;99.90;;;;;;7385558;19;20323;-73
2022/03/16 16:11:08;;;;;;;14.50;11.48;;;11.90;99.90;;;;;;7388050;19;20647;-73
2022/03/16 16:13:38;;;;;;;14.18;11.35;;;11.90;99.90;;;;;;7382643;19;20312;-74
2022/03/16 16:16:04;;;;;;;13.68;11.90;;;11.90;99.90;;;;;;7365193;19;20300;-74
2022/03/16 16:18:30;;;;;;;16.23;12.82;;;11.90;99.90;;;;;;7387660;19;20737;-73
2022/03/16 16:20:56;;;;;;;16.98;12.65;;;11.80;99.90;;;;;;7372269;19;20975;-73
2022/03/16 16:23:22;;;;;;;16.33;11.60;;;11.80;99.90;;;;;;7385405;19;20331;-74
2022/03/16 16:25:51;;;;;;;13.73;11.82;;;11.80;99.90;;;;;;7385622;19;20308;-74
2022/03/16 16:28:22;;;;;;;15.40;12.18;;;11.80;99.90;;;;;;7385626;19;20335;-73
2022/03/16 16:30:53;;;;;;;13.32;11.88;;;11.80;99.90;;;;;;7385923;19;20324;-74
2022/03/16 16:33:19;;;;;;;14.63;12.15;;;11.80;99.90;;;;;;7384065;19;20403;-74
2022/03/16 16:35:45;;;;;;;14.23;12.47;;;11.80;99.90;;;;;;7378390;19;21181;-74
2022/03/16 16:38:12;;;;;;;16.27;13.20;;;11.80;99.90;;;;;;7378939;19;20327;-74
2022/03/16 16:40:38;;;;;;;14.73;13.13;;;11.60;99.90;;;;;;7379970;19;20661;-73
2022/03/16 16:43:13;;;;;;;16.55;13.30;;;11.40;99.90;;;;;;7376345;19;20370;-73
2022/03/16 16:45:43;;;;;;;15.75;13.18;;;11.30;99.90;;;;;;7379051;19;20439;-73
2022/03/16 16:48:10;;;;;;;17.95;13.07;;;11.20;99.90;;;;;;7378250;19;20304;-73
2022/03/16 16:50:39;;;;;;;15.77;11.73;;;11.10;99.90;;;;;;7378938;19;20317;-74
2022/03/16 16:53:07;;;;;;;16.40;12.77;;;11.00;99.90;;;;;;7376305;19;20304;-74
2022/03/16 16:55:33;;;;;;;14.65;12.55;;;10.90;99.90;;;;;;7377404;19;20316;-74
2022/03/16 16:58:00;;;;;;;17.27;13.23;;;10.80;99.90;;;;;;7378773;19;20316;-74
2022/03/16 17:00:26;;;;;;;14.70;12.15;;;10.70;99.90;;;;;;7377188;19;21095;-74
2022/03/16 17:02:56;;;;;;;18.25;12.57;;;10.60;99.90;;;;;;7378141;19;20309;-74
2022/03/16 17:08:16;;;;;;;16.08;11.95;;;10.30;99.90;;;;;;7355232;19;20397;-74
2022/03/16 17:10:44;;;;;;;15.27;12.50;;;10.20;99.90;;;;;;7378193;19;20320;-75
2022/03/16 17:13:10;;;;;;;16.77;13.43;;;10.00;99.90;;;;;;7377722;19;20305;-74
2022/03/16 17:15:38;;;;;;;18.45;13.38;;;9.90;99.90;;;;;;7373264;19;20416;-75
2022/03/16 17:18:04;;;;;;;14.57;12.35;;;9.80;99.90;;;;;;7376066;19;20841;-75
2022/03/16 17:20:33;;;;;;;13.53;12.10;;;9.70;99.90;;;;;;7380890;19;20313;-74
2022/03/16 17:23:02;;;;;;;16.45;11.90;;;9.60;99.90;;;;;;7376396;19;21180;-74
2022/03/16 17:25:29;;;;;;;14.52;11.75;;;9.60;99.90;;;;;;7376559;19;20320;-75
2022/03/16 17:27:55;;;;;;;13.27;11.75;;;9.50;99.90;;;;;;7379953;19;20873;-74
2022/03/16 17:30:21;;;;;;;14.95;11.98;;;9.60;99.90;;;;;;7377057;19;20325;-74
2022/03/16 17:32:48;;;;;;;12.70;11.38;;;9.50;99.90;;;;;;7375755;19;20670;-75
2022/03/16 17:35:14;;;;;;;15.55;12.00;;;9.50;99.90;;;;;;7376920;19;20312;-74
2022/03/16 17:37:41;;;;;;;16.83;12.55;;;9.50;99.90;;;;;;7376960;19;20316;-75
2022/03/16 17:40:11;;;;;;;17.55;13.82;;;9.40;99.90;;;;;;7376935;19;21282;-75
2022/03/16 17:45:31;;;;;;;14.95;12.85;;;9.20;99.90;;;;;;7271275;19;2004559;-75
2022/03/16 17:47:57;;;;;;;16.33;12.07;;;9.20;99.90;;;;;;7376203;19;20813;-74
2022/03/16 17:50:24;;;;;;;14.45;11.75;;;9.10;99.90;;;;;;7377712;19;20312;-74
2022/03/16 17:52:50;;;;;;;13.73;10.75;;;9.10;99.90;;;;;;7376945;19;20423;-74
2022/03/16 17:56:44;;;;;;;13.70;11.30;;;9.10;99.90;;;;;;7377341;19;20400;-74
2022/03/16 17:58:01;;;;;;;15.57;11.70;;;9.10;99.90;;;;;;7377116;19;20350;-73
2022/03/16 18:00:28;;;;;;;17.90;13.10;;;8.90;99.90;;;;;;7373048;19;20387;-74
2022/03/16 18:02:54;;;;;;;21.03;14.00;;;8.80;99.90;;;;;;7373987;19;21355;-74
2022/03/16 18:05:20;;;;;;;15.20;12.10;;;8.70;99.90;;;;;;7359613;19;20336;-74
2022/03/16 18:07:45;;;;;;;17.43;12.70;;;8.70;99.90;;;;;;7376702;19;20313;-74
2022/03/16 18:12:58;;;;;;;15.85;12.68;;;8.70;99.90;;;;;;7374841;19;20650;-75
2022/03/16 18:15:24;;;;;;;16.08;12.27;;;8.70;99.90;;;;;;7375052;19;20356;-74
2022/03/16 18:17:50;;;;;;;16.48;13.38;;;8.60;99.90;;;;;;7374962;19;20317;-75
2022/03/16 18:20:15;;;;;;;13.60;11.50;;;8.60;99.90;;;;;;7376076;19;20324;-74
2022/03/16 18:22:41;;;;;;;16.35;12.13;;;8.60;99.90;;;;;;7372989;19;20317;-74
2022/03/16 18:25:07;;;;;;;17.23;12.60;;;8.50;99.90;;;;;;7370195;19;20420;-74
2022/03/16 18:27:34;;;;;;;15.60;12.23;;;8.50;99.90;;;;;;7372788;19;20879;-74
2022/03/16 18:30:00;;;;;;;13.57;11.27;;;8.40;99.90;;;;;;7372958;19;20336;-74
2022/03/16 18:32:30;;;;;;;14.60;12.40;;;8.30;99.90;;;;;;7371690;19;20343;-75
2022/03/16 18:34:59;;;;;;;14.68;11.65;;;8.30;99.90;;;;;;7372604;19;20344;-75
2022/03/16 18:37:25;;;;;;;14.00;11.13;;;8.30;99.90;;;;;;7369565;19;20312;-74
2022/03/16 18:39:52;;;;;;;14.05;12.10;;;8.20;99.90;;;;;;7372567;19;20347;-74
2022/03/16 18:42:20;;;;;;;16.60;12.43;;;8.10;99.90;;;;;;7372278;19;20308;-75
2022/03/16 18:44:46;;;;;;;15.65;12.23;;;8.10;99.90;;;;;;7373123;19;20333;-74
2022/03/16 18:47:12;;;;;;;15.77;11.73;;;8.00;99.90;;;;;;7369745;19;20320;-73
2022/03/16 18:49:39;;;;;;;14.27;11.67;;;7.90;99.90;;;;;;7373294;19;20412;-74
2022/03/16 18:54:35;;;;;;;14.25;11.18;;;7.50;99.90;;;;;;7370216;19;20332;-74
2022/03/16 18:57:04;;;;;;;14.90;12.30;;;7.40;99.90;;;;;;7376806;19;20312;-74
2022/03/16 18:59:30;;;;;;;15.25;11.95;;;7.40;99.90;;;;;;7369985;19;20400;-74
2022/03/16 19:01:58;;;;;;;16.73;12.95;;;7.30;99.90;;;;;;7370909;19;20351;-73
2022/03/16 19:04:25;;;;;;;15.10;12.70;;;7.20;99.90;;;;;;7372796;19;20634;-74
2022/03/16 19:06:50;;;;;;;13.75;11.65;;;7.10;99.90;;;;;;7367924;19;20308;-74
2022/03/16 19:09:19;;;;;;;20.20;14.93;;;7.00;99.90;;;;;;7374972;19;20343;-74
2022/03/16 19:14:30;;;;;;;17.20;13.02;;;6.70;99.90;;;;;;7247123;19;2004388;-74
2022/03/16 19:16:55;;;;;;;18.03;13.20;;;6.70;99.90;;;;;;7373089;19;20313;-73
2022/03/16 19:19:22;;;;;;;15.77;12.00;;;6.60;99.90;;;;;;7374959;19;21260;-73
2022/03/16 19:21:52;;;;;;;14.70;12.05;;;6.70;99.90;;;;;;7372438;19;20331;-74
2022/03/16 19:24:18;;;;;;;17.13;12.13;;;6.70;99.90;;;;;;7370542;19;21143;-74
2022/03/16 19:26:44;;;;;;;15.25;12.15;;;6.70;99.90;;;;;;7371796;19;20332;-73
2022/03/16 19:29:11;;;;;;;15.82;12.35;;;6.80;99.90;;;;;;7371979;19;20670;-74
2022/03/16 19:31:40;;;;;;;15.40;12.35;;;6.60;99.90;;;;;;7366260;19;20328;-74
2022/03/16 19:34:06;;;;;;;15.35;12.07;;;6.60;99.90;;;;;;7371617;19;20918;-74
2022/03/16 19:36:32;;;;;;;15.77;12.40;;;6.50;99.90;;;;;;7372116;19;20332;-75
2022/03/16 19:38:59;;;;;;;14.90;12.48;;;6.40;99.90;;;;;;7370384;19;20383;-74
2022/03/16 19:41:26;;;;;;;17.20;13.15;;;6.40;99.90;;;;;;7370241;19;20324;-73
2022/03/16 19:43:52;;;;;;;16.25;12.73;;;6.30;99.90;;;;;;7367324;19;20328;-73
2022/03/16 19:46:18;;;;;;;18.00;13.33;;;6.30;99.90;;;;;;7370425;19;20337;-74
2022/03/16 19:48:44;;;;;;;18.75;11.93;;;6.30;99.90;;;;;;7355323;19;20345;-75
2022/03/16 19:51:10;;;;;;;18.70;13.05;;;6.30;99.90;;;;;;7373510;19;20320;-74
2022/03/16 19:53:36;;;;;;;16.60;12.20;;;6.20;99.90;;;;;;7371826;19;20884;-74
2022/03/16 19:56:05;;;;;;;15.13;12.48;;;6.30;99.90;;;;;;7370086;19;20377;-75
2022/03/16 19:58:32;;;;;;;17.48;12.68;;;6.20;99.90;;;;;;7372873;19;20344;-74
2022/03/16 20:00:58;;;;;;;16.60;13.00;;;6.10;99.90;;;;;;7368547;19;20321;-74
2022/03/16 20:03:24;;;;;;;17.45;13.55;;;6.10;99.90;;;;;;7365876;19;20386;-74
2022/03/16 20:05:50;;;;;;;15.70;12.70;;;6.00;99.90;;;;;;7369870;19;20322;-74
2022/03/16 20:08:16;;;;;;;17.20;13.47;;;5.90;99.90;;;;;;7372613;19;20313;-74
2022/03/16 20:10:42;;;;;;;18.02;14.02;;;5.90;99.90;;;;;;7368414;19;20320;-74
2022/03/16 20:13:10;;;;;;;19.90;15.32;;;5.90;99.90;;;;;;7374045;19;20780;-74
2022/03/16 20:15:36;;;;;;;17.45;13.98;;;5.90;99.90;;;;;;7375170;19;20704;-74
2022/03/16 20:18:06;;;;;;;17.67;13.45;;;5.90;99.90;;;;;;7380444;19;20930;-75
2022/03/16 20:20:35;;;;;;;20.42;14.65;;;5.90;99.90;;;;;;7376069;19;20336;-74
2022/03/16 20:23:01;;;;;;;15.88;12.85;;;5.80;99.90;;;;;;7376250;19;20904;-74
2022/03/16 20:25:28;;;;;;;16.45;13.27;;;5.80;99.90;;;;;;7377366;19;20346;-74